createdAt,value
2019-01-28T00:02:01.682Z,64.53
2019-01-28T00:04:31.766Z,65.90
2019-01-28T00:07:03.146Z,69.03
2019-01-28T00:09:33.778Z,63.87
2019-01-28T00:12:03.867Z,65.17
2019-01-28T00:14:55.769Z,67.47
2019-01-28T00:17:25.973Z,68.87
2019-01-28T00:19:55.933Z,66.37
2019-01-28T00:22:26.256Z,72.23
2019-01-28T00:24:56.174Z,65.60
2019-01-28T00:27:26.495Z,67.20
2019-01-28T00:32:47.112Z,64.63
2019-01-28T00:35:18.190Z,67.03
2019-01-28T00:37:48.819Z,71.17
2019-01-28T00:40:18.888Z,68.53
2019-01-28T00:42:49.229Z,70.23
2019-01-28T00:45:20.169Z,70.30
2019-01-28T00:47:50.226Z,71.23
2019-01-28T00:50:20.232Z,72.10
2019-01-28T00:55:46.962Z,68.13
2019-01-28T00:58:17.082Z,67.50
2019-01-28T01:00:47.202Z,72.70
2019-01-28T01:03:17.422Z,72.37
2019-01-28T01:05:48.363Z,71.53
2019-01-28T01:08:18.685Z,72.13
2019-01-28T01:10:48.630Z,73.50
2019-01-28T01:13:18.821Z,75.83
2019-01-28T01:15:51.020Z,73.97
2019-01-28T01:18:21.112Z,75.80
2019-01-28T01:20:52.974Z,73.00
2019-01-28T01:23:23.151Z,75.80
2019-01-28T01:25:54.230Z,75.37
2019-01-28T01:28:24.556Z,79.63
2019-01-28T01:30:54.573Z,78.83
2019-01-28T01:33:24.795Z,79.00
2019-01-28T01:35:56.039Z,77.03
2019-01-28T01:38:26.263Z,77.90
2019-01-28T01:40:56.689Z,77.83
2019-01-28T01:46:23.563Z,76.83
2019-01-28T01:48:53.732Z,75.30
2019-01-28T01:51:23.926Z,76.33
2019-01-28T01:53:54.013Z,80.70
2019-01-28T01:56:26.181Z,82.20
2019-01-28T01:58:56.607Z,81.00
2019-01-28T02:01:26.742Z,77.73
2019-01-28T02:03:57.052Z,73.43
2019-01-28T02:06:28.200Z,76.07
2019-01-28T02:08:58.446Z,78.97
2019-01-28T02:11:28.433Z,75.80
2019-01-28T02:13:58.655Z,74.97
2019-01-28T02:16:30.823Z,77.50
2019-01-28T02:19:01.043Z,73.37
2019-01-28T02:21:31.146Z,75.23
2019-01-28T02:24:01.389Z,74.47
2019-01-28T02:26:32.529Z,72.67
2019-01-28T02:29:08.098Z,69.93
2019-01-28T02:31:38.094Z,73.30
2019-01-28T02:34:08.317Z,73.37
2019-01-28T02:36:39.559Z,71.37
2019-01-28T02:39:09.885Z,77.63
2019-01-28T02:41:40.312Z,77.27
2019-01-28T02:44:10.740Z,73.27
2019-01-28T02:46:41.888Z,73.87
2019-01-28T02:49:12.417Z,72.40
2019-01-28T02:51:42.516Z,66.67
2019-01-28T02:54:12.897Z,67.73
2019-01-28T02:56:44.425Z,70.70
2019-01-28T02:59:14.628Z,75.53
2019-01-28T03:01:44.670Z,70.17
2019-01-28T03:04:14.902Z,70.90
2019-01-28T03:06:46.170Z,69.10
2019-01-28T03:09:16.435Z,70.43
2019-01-28T03:11:46.659Z,74.27
2019-01-28T03:14:16.823Z,74.23
2019-01-28T03:17:09.742Z,73.67
2019-01-28T03:19:40.295Z,68.33
2019-01-28T03:22:10.283Z,69.43
2019-01-28T03:24:40.503Z,74.77
2019-01-28T03:27:10.621Z,69.67
2019-01-28T03:29:41.148Z,72.43
2019-01-28T03:32:11.372Z,70.37
2019-01-28T03:34:41.695Z,67.37
2019-01-28T03:37:11.715Z,67.03
2019-01-28T03:39:42.138Z,68.43
2019-01-28T03:42:12.158Z,71.37
2019-01-28T03:44:42.231Z,68.70
2019-01-28T03:47:12.191Z,66.10
2019-01-28T03:49:43.378Z,69.43
2019-01-28T03:52:14.817Z,71.57
2019-01-28T03:54:44.956Z,68.50
2019-01-28T03:57:15.128Z,67.33
2019-01-28T03:59:45.481Z,67.93
2019-01-28T04:02:15.563Z,67.20
2019-01-28T04:04:45.684Z,61.27
2019-01-28T04:07:15.740Z,61.57
2019-01-28T04:09:45.869Z,57.83
2019-01-28T04:12:15.769Z,56.00
2019-01-28T04:14:46.072Z,53.80
2019-01-28T04:17:16.942Z,51.73
2019-01-28T04:19:47.019Z,50.90
2019-01-28T04:22:18.507Z,49.70
2019-01-28T04:24:48.589Z,47.63
2019-01-28T04:27:18.818Z,46.33
2019-01-28T04:29:49.141Z,44.93
2019-01-28T04:32:19.255Z,43.10
2019-01-28T04:34:49.579Z,44.40
2019-01-28T04:37:19.731Z,41.87
2019-01-28T04:39:50.046Z,37.43
2019-01-28T04:42:21.805Z,37.23
2019-01-28T04:44:52.129Z,36.33
2019-01-28T04:47:23.784Z,33.30
2019-01-28T04:49:57.386Z,33.90
2019-01-28T04:52:27.504Z,33.60
2019-01-28T04:55:08.938Z,30.73
2019-01-28T05:00:27.032Z,30.30
2019-01-28T05:02:57.097Z,30.27
2019-01-28T05:05:28.513Z,30.60
2019-01-28T05:08:17.784Z,29.73
2019-01-28T05:10:48.212Z,30.87
2019-01-28T05:13:18.302Z,29.73
2019-01-28T05:15:49.572Z,32.13
2019-01-28T05:18:19.532Z,31.13
2019-01-28T05:20:49.713Z,30.77
2019-01-28T05:23:20.273Z,30.73
2019-01-28T05:25:51.592Z,31.17
2019-01-28T05:28:21.610Z,30.73
2019-01-28T05:30:51.826Z,29.13
2019-01-28T05:33:21.846Z,29.17
2019-01-28T05:35:54.765Z,27.50
2019-01-28T05:38:24.575Z,30.30
2019-01-28T05:40:55.003Z,31.30
2019-01-28T05:43:25.199Z,29.17
2019-01-28T05:45:56.638Z,30.90
2019-01-28T05:48:45.916Z,31.43
2019-01-28T05:51:16.082Z,31.17
2019-01-28T05:56:42.050Z,31.13
2019-01-28T05:59:23.719Z,29.87
2019-01-28T06:01:53.742Z,28.63
2019-01-28T06:04:23.699Z,29.70
2019-01-28T06:06:53.675Z,32.37
2019-01-28T06:09:23.563Z,31.60
2019-01-28T06:12:31.603Z,30.60
2019-01-28T06:15:01.618Z,32.30
2019-01-28T06:17:52.549Z,33.77
2019-01-28T06:20:25.821Z,32.63
2019-01-28T06:22:57.538Z,34.40
2019-01-28T06:28:28.387Z,33.90
2019-01-28T06:30:58.916Z,31.17
2019-01-28T06:33:29.151Z,32.67
2019-01-28T06:35:59.735Z,31.07
2019-01-28T06:38:29.955Z,31.80
2019-01-28T06:41:01.201Z,33.37
2019-01-28T06:43:31.425Z,35.40
2019-01-28T06:46:01.554Z,30.03
2019-01-28T06:48:31.813Z,31.00
2019-01-28T06:51:03.114Z,34.00
2019-01-28T06:53:33.655Z,32.77
2019-01-28T06:56:05.401Z,35.07
2019-01-28T06:58:35.928Z,32.87
2019-01-28T07:01:07.414Z,34.40
2019-01-28T07:03:37.703Z,33.83
2019-01-28T07:06:07.955Z,56.43
2019-01-28T07:08:38.321Z,42.70
2019-01-28T07:11:09.498Z,39.53
2019-01-28T07:13:39.730Z,35.00
2019-01-28T07:16:09.877Z,35.10
2019-01-28T07:18:41.697Z,36.27
2019-01-28T07:21:13.965Z,36.10
2019-01-28T07:23:44.187Z,36.57
2019-01-28T07:26:14.339Z,34.00
2019-01-28T07:28:44.530Z,37.03
2019-01-28T07:31:15.777Z,38.40
2019-01-28T07:33:45.895Z,38.43
2019-01-28T07:36:15.999Z,40.63
2019-01-28T07:38:46.467Z,37.03
2019-01-28T07:41:17.889Z,41.47
2019-01-28T07:43:48.141Z,41.00
2019-01-28T07:46:18.129Z,44.53
2019-01-28T07:48:48.428Z,42.30
2019-01-28T07:51:19.703Z,43.23
2019-01-28T07:53:50.225Z,46.43
2019-01-28T07:56:20.401Z,44.47
2019-01-28T07:58:50.603Z,43.77
2019-01-28T08:01:22.045Z,40.97
2019-01-28T08:03:52.295Z,44.77
2019-01-28T08:06:22.191Z,40.40
2019-01-28T08:08:52.173Z,43.17
2019-01-28T08:11:23.458Z,46.20
2019-01-28T08:13:53.537Z,46.97
2019-01-28T08:16:23.695Z,46.33
2019-01-28T08:18:53.683Z,47.37
2019-01-28T08:21:26.046Z,44.57
2019-01-28T08:23:56.173Z,49.87
2019-01-28T08:26:26.391Z,48.73
2019-01-28T08:28:56.506Z,50.40
2019-01-28T08:31:27.695Z,47.20
2019-01-28T08:33:57.668Z,50.80
2019-01-28T08:36:27.787Z,51.10
2019-01-28T08:38:57.916Z,52.23
2019-01-28T08:41:29.001Z,51.17
2019-01-28T08:43:59.239Z,50.60
2019-01-28T08:46:30.385Z,49.77
2019-01-28T08:49:00.693Z,50.40
2019-01-28T08:51:31.724Z,50.37
2019-01-28T08:54:01.971Z,48.77
2019-01-28T08:56:32.261Z,51.90
2019-01-28T08:59:02.445Z,50.70
2019-01-28T09:01:33.719Z,46.53
2019-01-28T09:04:03.881Z,52.00
2019-01-28T09:06:33.929Z,49.43
2019-01-28T09:09:05.690Z,46.90
2019-01-28T09:11:37.311Z,47.20
2019-01-28T09:14:07.771Z,48.13
2019-01-28T09:16:37.686Z,46.17
2019-01-28T09:19:08.041Z,54.07
2019-01-28T09:21:40.105Z,50.73
2019-01-28T09:24:10.601Z,50.10
2019-01-28T09:26:40.610Z,50.67
2019-01-28T09:29:11.015Z,48.50
2019-01-28T09:32:03.182Z,46.87
2019-01-28T09:34:33.335Z,46.47
2019-01-28T09:37:03.320Z,50.50
2019-01-28T09:39:33.539Z,53.33
2019-01-28T09:42:04.889Z,52.67
2019-01-28T09:44:35.074Z,50.67
2019-01-28T09:47:05.333Z,49.63
2019-01-28T09:49:35.557Z,49.47
2019-01-28T09:52:06.699Z,50.53
2019-01-28T09:54:38.458Z,50.63
2019-01-28T09:57:08.511Z,49.43
2019-01-28T09:59:38.834Z,44.87
2019-01-28T10:02:09.901Z,53.73
2019-01-28T10:04:40.092Z,50.53
2019-01-28T10:07:10.077Z,45.00
2019-01-28T10:09:41.324Z,44.20
2019-01-28T10:12:12.343Z,49.57
2019-01-28T10:14:42.526Z,46.23
2019-01-28T10:17:12.603Z,48.50
2019-01-28T10:19:42.720Z,43.27
2019-01-28T10:22:14.818Z,49.73
2019-01-28T10:24:45.138Z,48.30
2019-01-28T10:27:15.051Z,47.57
2019-01-28T10:29:45.554Z,47.60
2019-01-28T10:32:16.697Z,46.53
2019-01-28T10:34:47.978Z,44.67
2019-01-28T10:37:18.064Z,44.87
2019-01-28T10:39:48.171Z,44.00
2019-01-28T10:42:19.223Z,45.43
2019-01-28T10:44:49.651Z,47.03
2019-01-28T10:47:19.667Z,47.87
2019-01-28T10:49:49.891Z,47.00
2019-01-28T10:52:21.032Z,45.53
2019-01-28T10:54:51.290Z,47.07
2019-01-28T10:57:21.271Z,45.93
2019-01-28T10:59:51.598Z,45.47
2019-01-28T11:02:22.737Z,46.50
2019-01-28T11:04:53.269Z,48.53
2019-01-28T11:07:23.286Z,47.80
2019-01-28T11:09:53.777Z,46.40
2019-01-28T11:12:24.798Z,47.33
2019-01-28T11:14:55.414Z,44.83
2019-01-28T11:17:25.689Z,46.63
2019-01-28T11:19:56.007Z,47.30
2019-01-28T11:22:28.362Z,47.07
2019-01-28T11:24:58.791Z,48.43
2019-01-28T11:27:29.042Z,51.37
2019-01-28T11:29:59.685Z,50.50
2019-01-28T11:32:31.168Z,51.53
2019-01-28T11:35:01.464Z,50.27
2019-01-28T11:37:31.800Z,53.10
2019-01-28T11:40:02.008Z,51.93
2019-01-28T11:43:02.641Z,52.20
2019-01-28T11:45:43.175Z,51.37
2019-01-28T11:48:13.137Z,52.17
2019-01-28T11:50:56.020Z,52.37
2019-01-28T11:53:26.669Z,49.23
2019-01-28T11:55:56.759Z,54.23
2019-01-28T11:58:27.248Z,53.50
2019-01-28T12:01:02.048Z,48.20
2019-01-28T12:03:32.266Z,49.00
2019-01-28T12:06:05.049Z,48.20
2019-01-28T12:08:38.273Z,51.10
2019-01-28T12:11:09.279Z,48.80
2019-01-28T12:13:39.843Z,47.10
2019-01-28T12:19:05.372Z,43.57
2019-01-28T12:21:35.807Z,47.40
2019-01-28T12:24:05.981Z,47.97
2019-01-28T12:26:37.473Z,48.43
2019-01-28T12:29:07.559Z,38.33
2019-01-28T12:31:37.752Z,35.10
2019-01-28T12:34:28.772Z,40.83
2019-01-28T12:36:59.124Z,43.93
2019-01-28T12:39:29.740Z,42.97
2019-01-28T12:42:01.330Z,41.60
2019-01-28T12:44:32.512Z,40.93
2019-01-28T12:47:03.710Z,42.70
2019-01-28T12:49:33.602Z,41.20
2019-01-28T12:52:03.926Z,40.37
2019-01-28T12:54:34.023Z,35.60
2019-01-28T12:57:04.246Z,34.80
2019-01-28T12:59:37.541Z,36.00
2019-01-28T13:02:07.689Z,34.77
2019-01-28T13:04:42.086Z,34.27
2019-01-28T13:07:13.647Z,33.47
2019-01-28T13:09:43.677Z,29.77
2019-01-28T13:15:12.328Z,28.50
2019-01-28T13:17:43.604Z,28.80
2019-01-28T13:20:13.721Z,29.80
2019-01-28T13:22:45.584Z,29.43
2019-01-28T13:25:25.158Z,28.97
2019-01-28T13:27:55.136Z,24.53
2019-01-28T13:30:28.434Z,21.00
2019-01-28T13:33:00.353Z,19.27
2019-01-28T13:35:30.280Z,15.80
2019-01-28T13:38:00.427Z,15.80
2019-01-28T13:40:30.445Z,16.40
2019-01-28T13:43:00.768Z,15.37
2019-01-28T13:45:34.063Z,13.63
2019-01-28T13:48:04.822Z,15.10
2019-01-28T13:50:34.818Z,13.13
2019-01-28T13:53:07.189Z,11.20
2019-01-28T13:55:37.309Z,13.90
2019-01-28T13:58:07.527Z,13.40
2019-01-28T14:00:37.851Z,11.20
2019-01-28T14:03:08.175Z,11.63
2019-01-28T14:05:38.168Z,12.33
2019-01-28T14:08:10.054Z,11.83
2019-01-28T14:10:40.173Z,9.33
2019-01-28T14:13:10.394Z,9.83
2019-01-28T14:15:41.564Z,9.13
2019-01-28T14:18:11.770Z,8.47
2019-01-28T14:20:42.015Z,8.30
2019-01-28T14:23:12.203Z,6.20
2019-01-28T14:25:44.268Z,5.73
2019-01-28T14:28:14.489Z,5.93
2019-01-28T14:30:45.882Z,6.13
2019-01-28T14:36:12.701Z,5.40
2019-01-28T14:38:44.258Z,5.40
2019-01-28T14:41:15.910Z,4.00
2019-01-28T14:43:46.878Z,3.53
2019-01-28T14:46:19.017Z,3.00
2019-01-28T14:48:49.537Z,2.23
2019-01-28T14:51:19.765Z,2.10
2019-01-28T14:53:50.091Z,1.80
2019-01-28T14:56:21.233Z,2.20
2019-01-28T14:58:51.456Z,2.10
2019-01-28T15:01:21.472Z,1.77
2019-01-28T15:03:51.617Z,2.53
2019-01-28T15:06:22.755Z,2.03
2019-01-28T15:08:52.969Z,2.10
2019-01-28T15:11:22.995Z,2.03
2019-01-28T15:13:53.217Z,2.70
2019-01-28T15:16:25.366Z,2.50
2019-01-28T15:18:55.689Z,2.33
2019-01-28T15:21:25.706Z,2.60
2019-01-28T15:23:58.589Z,2.80
2019-01-28T15:26:33.888Z,2.63
2019-01-28T15:29:05.744Z,2.47
2019-01-28T15:31:35.910Z,2.50
2019-01-28T15:34:06.337Z,2.40
2019-01-28T15:36:37.479Z,2.30
2019-01-28T15:39:10.023Z,2.27
2019-01-28T15:41:40.381Z,2.47
2019-01-28T15:44:10.568Z,2.50
2019-01-28T15:46:41.849Z,2.80
2019-01-28T15:49:12.297Z,2.57
2019-01-28T15:51:42.293Z,2.60
2019-01-28T15:54:12.514Z,2.50
2019-01-28T15:56:42.769Z,2.33
2019-01-28T15:59:12.754Z,2.50
2019-01-28T16:01:42.836Z,2.40
2019-01-28T16:04:14.470Z,2.43
2019-01-28T16:06:45.433Z,2.90
2019-01-28T16:09:15.334Z,2.83
2019-01-28T16:11:45.276Z,2.70
2019-01-28T16:14:15.179Z,2.83
2019-01-28T16:16:46.146Z,3.40
2019-01-28T16:19:16.046Z,3.33
2019-01-28T16:21:45.916Z,3.50
2019-01-28T16:24:15.749Z,4.07
2019-01-28T16:26:47.599Z,3.73
2019-01-28T16:29:17.393Z,3.97
2019-01-28T16:31:47.717Z,4.20
2019-01-28T16:34:18.477Z,4.87
2019-01-28T16:36:49.698Z,5.47
2019-01-28T16:39:19.714Z,5.40
2019-01-28T16:41:50.039Z,5.67
2019-01-28T16:44:21.797Z,5.50
2019-01-28T16:46:55.706Z,5.90
2019-01-28T16:49:26.033Z,5.87
2019-01-28T16:51:56.152Z,5.90
2019-01-28T16:54:26.197Z,5.50
2019-01-28T16:56:56.388Z,5.80
2019-01-28T16:59:26.405Z,5.70
2019-01-28T17:01:56.294Z,6.00
2019-01-28T17:04:26.143Z,5.60
2019-01-28T17:06:56.028Z,5.67
2019-01-28T17:09:25.931Z,5.43
2019-01-28T17:11:55.882Z,5.47
2019-01-28T17:14:25.724Z,6.27
2019-01-28T17:16:55.859Z,5.63
2019-01-28T17:19:28.818Z,6.30
2019-01-28T17:21:59.066Z,5.60
2019-01-28T17:24:29.486Z,6.37
2019-01-28T17:27:03.731Z,5.70
2019-01-28T17:29:34.146Z,6.23
2019-01-28T17:32:04.069Z,6.30
2019-01-28T17:34:34.240Z,6.70
2019-01-28T17:37:04.184Z,8.73
2019-01-28T17:39:34.378Z,5.70
2019-01-28T17:42:04.395Z,4.80
2019-01-28T17:44:34.924Z,5.47
2019-01-28T17:47:05.234Z,5.07
2019-01-28T17:49:36.492Z,4.80
2019-01-28T17:52:06.949Z,4.57
2019-01-28T17:54:37.275Z,4.20
2019-01-28T17:57:11.357Z,5.00
2019-01-28T17:59:41.482Z,5.07
2019-01-28T18:02:11.418Z,5.67
2019-01-28T18:04:43.230Z,5.13
2019-01-28T18:07:14.293Z,4.70
2019-01-28T18:09:44.615Z,4.50
2019-01-28T18:12:14.783Z,4.00
2019-01-28T18:14:45.099Z,4.30
2019-01-28T18:17:16.091Z,3.87
2019-01-28T18:19:56.845Z,2.90
2019-01-28T18:22:28.458Z,3.00
2019-01-28T18:24:58.886Z,3.43
2019-01-28T18:27:29.994Z,3.13
2019-01-28T18:30:00.249Z,3.50
2019-01-28T18:32:35.053Z,3.90
2019-01-28T18:35:08.748Z,3.60
2019-01-28T18:37:39.075Z,4.13
2019-01-28T18:40:12.776Z,4.47
2019-01-28T18:42:42.999Z,4.93
2019-01-28T18:45:18.399Z,4.50
2019-01-28T18:47:46.957Z,6.20
2019-01-28T18:50:22.495Z,5.93
2019-01-28T18:52:53.030Z,7.13
2019-01-28T18:55:23.556Z,7.37
2019-01-28T18:57:53.648Z,7.23
2019-01-28T19:00:29.771Z,7.67
2019-01-28T19:03:00.167Z,7.83
2019-01-28T19:05:49.196Z,7.73
2019-01-28T19:08:30.262Z,7.30
2019-01-28T19:11:10.816Z,7.77
2019-01-28T19:13:58.674Z,7.37
2019-01-28T19:16:36.372Z,12.97
2019-01-28T19:19:07.820Z,12.03
2019-01-28T19:21:39.610Z,10.90
2019-01-28T19:24:09.828Z,11.77
2019-01-28T19:26:42.495Z,7.60
2019-01-28T19:29:13.119Z,5.57
2019-01-28T19:31:43.422Z,5.07
2019-01-28T19:34:13.761Z,6.00
2019-01-28T19:36:45.441Z,5.27
2019-01-28T19:39:26.593Z,6.50
2019-01-28T19:41:56.793Z,6.00
2019-01-28T19:44:27.316Z,6.23
2019-01-28T19:46:59.179Z,6.47
2019-01-28T19:49:29.250Z,8.07
2019-01-28T19:52:01.292Z,8.73
2019-01-28T19:54:31.510Z,7.03
2019-01-28T19:57:04.179Z,6.50
2019-01-28T19:59:35.843Z,7.50
2019-01-28T20:02:16.954Z,7.67
2019-01-28T20:04:48.393Z,6.87
2019-01-28T20:07:21.340Z,6.10
2019-01-28T20:09:53.218Z,5.20
2019-01-28T20:12:23.338Z,4.67
2019-01-28T20:14:55.813Z,6.43
2019-01-28T20:17:26.239Z,5.60
2019-01-28T20:19:57.909Z,9.60
2019-01-28T20:22:28.404Z,9.30
2019-01-28T20:24:58.440Z,6.90
2019-01-28T20:27:29.128Z,34.37
2019-01-28T20:30:01.162Z,12.93
2019-01-28T20:32:31.769Z,7.63
2019-01-28T20:35:01.708Z,7.00
2019-01-28T20:37:33.032Z,6.90
2019-01-28T20:40:03.047Z,7.13
2019-01-28T20:42:33.783Z,6.80
2019-01-28T20:45:05.335Z,7.00
2019-01-28T20:47:36.796Z,6.80
2019-01-28T20:50:10.825Z,7.50
2019-01-28T20:52:43.453Z,8.83
2019-01-28T20:55:13.518Z,9.80
2019-01-28T20:57:44.956Z,13.43
2019-01-28T21:00:20.910Z,10.23
2019-01-28T21:02:51.345Z,9.43
2019-01-28T21:05:33.565Z,11.03
2019-01-28T21:08:14.157Z,12.80
2019-01-28T21:10:44.857Z,38.83
2019-01-28T21:16:10.664Z,12.23
2019-01-28T21:18:41.023Z,9.50
2019-01-28T21:21:11.011Z,9.20
2019-01-28T21:23:41.333Z,9.13
2019-01-28T21:26:14.527Z,8.47
2019-01-28T21:28:44.949Z,8.07
2019-01-28T21:31:15.841Z,7.53
2019-01-28T21:33:46.007Z,21.17
2019-01-28T21:36:24.524Z,21.27
2019-01-28T21:41:50.465Z,10.33
2019-01-28T21:44:22.121Z,10.47
2019-01-28T21:46:54.926Z,12.30
2019-01-28T21:52:05.719Z,11.23
2019-01-28T21:54:36.015Z,10.83
2019-01-28T21:57:07.366Z,11.60
2019-01-28T21:59:37.647Z,10.73
2019-01-28T22:02:07.607Z,12.23
2019-01-28T22:04:38.027Z,13.07
2019-01-28T22:07:09.274Z,12.43
2019-01-28T22:12:34.807Z,10.83
2019-01-28T22:15:13.321Z,11.03
2019-01-28T22:17:43.443Z,11.03
2019-01-28T22:20:18.067Z,11.30
2019-01-28T22:22:48.378Z,11.77
2019-01-28T22:25:21.702Z,11.93
2019-01-28T22:27:57.229Z,10.73
2019-01-28T22:30:44.417Z,11.13
2019-01-28T22:33:16.796Z,9.83
2019-01-28T22:35:48.377Z,10.60
2019-01-28T22:38:19.931Z,9.63
2019-01-28T22:40:50.151Z,10.07
2019-01-28T22:43:20.375Z,9.77
2019-01-28T22:45:51.826Z,10.73
2019-01-28T22:48:22.047Z,10.40
2019-01-28T22:50:52.433Z,11.17
2019-01-28T22:53:22.498Z,11.30
2019-01-28T22:55:53.935Z,10.60
2019-01-28T22:58:24.059Z,10.20
2019-01-28T23:01:17.942Z,10.30
2019-01-28T23:04:08.946Z,10.77
2019-01-28T23:06:39.270Z,10.63
2019-01-28T23:09:10.017Z,12.03
2019-01-28T23:11:40.739Z,10.50
2019-01-28T23:14:10.688Z,12.57
2019-01-28T23:16:42.124Z,10.27
2019-01-28T23:19:12.049Z,11.70
2019-01-28T23:21:42.034Z,11.17
2019-01-28T23:24:12.361Z,11.90
2019-01-28T23:26:43.604Z,10.27
2019-01-28T23:29:13.827Z,10.53
2019-01-28T23:31:43.948Z,12.00
2019-01-28T23:34:14.067Z,10.73
2019-01-28T23:36:45.416Z,10.80
2019-01-28T23:39:17.173Z,10.13
2019-01-28T23:41:47.189Z,10.33
2019-01-28T23:44:17.308Z,10.63
2019-01-28T23:46:48.455Z,10.97
2019-01-28T23:49:18.571Z,9.93
2019-01-28T23:51:48.690Z,9.97
2019-01-28T23:54:18.710Z,8.83
2019-01-28T23:56:50.084Z,9.87
2019-01-28T23:59:20.073Z,10.10
